Time;durP1;ratioP1;P1;durP2;ratioP2;P2;SDS_P1;SDS_P2;PMS_P1;PMS_P2;Temp;Humidity;BMP_temperature;BMP_pressure;BME280_temperature;BME280_humidity;BME280_pressure;Samples;Min_cycle;Max_cycle;Signal;HPM_P1;HPM_P2
2021/07/18 00:00:11;;;;;;;13.80;5.70;;;;;;;23.98;70.00;99427.81;5050430;28;20108;-68
2021/07/18 00:02:37;;;;;;;9.00;5.82;;;;;;;23.95;69.78;99419.16;5050805;28;20443;-67
2021/07/18 00:05:03;;;;;;;10.85;5.80;;;;;;;23.73;69.65;99383.84;5050170;28;20112;-72
2021/07/18 00:07:29;;;;;;;11.05;5.53;;;;;;;23.71;69.82;99401.50;5049484;28;20484;-65
2021/07/18 00:09:54;;;;;;;8.20;5.43;;;;;;;23.50;70.37;99382.00;5051213;28;20086;-69
2021/07/18 00:12:20;;;;;;;9.77;5.50;;;;;;;23.74;69.84;99422.47;5050346;28;20025;-71
2021/07/18 00:14:46;;;;;;;9.25;5.57;;;;;;;23.70;69.92;99418.22;5054561;28;20025;-66
2021/07/18 00:17:11;;;;;;;8.75;5.50;;;;;;;23.29;70.26;99378.31;5054514;28;20020;-66
2021/07/18 00:19:37;;;;;;;8.30;5.03;;;;;;;23.41;70.43;99416.53;5052921;28;20476;-69
2021/07/18 00:22:03;;;;;;;10.80;5.72;;;;;;;23.35;70.68;99400.94;5054288;28;20021;-65
2021/07/18 00:24:29;;;;;;;8.27;5.72;;;;;;;23.37;71.35;99422.84;5054758;28;20059;-65
2021/07/18 00:26:54;;;;;;;9.18;6.03;;;;;;;23.42;71.00;99421.75;5054495;28;20542;-67
2021/07/18 00:29:20;;;;;;;10.15;5.97;;;;;;;23.45;70.74;99418.16;5054613;28;20502;-67
2021/07/18 00:31:45;;;;;;;8.93;5.63;;;;;;;23.56;69.92;99408.16;5054516;28;20465;-67
2021/07/18 00:34:10;;;;;;;13.25;5.90;;;;;;;23.41;69.94;99375.28;5054444;28;20483;-65
2021/07/18 00:36:37;;;;;;;11.80;5.57;;;;;;;23.75;69.43;99412.75;5043430;28;20431;-67
2021/07/18 00:39:03;;;;;;;13.18;6.20;;;;;;;23.81;69.07;99424.88;5053964;28;20029;-72
2021/07/18 00:41:28;;;;;;;7.07;5.32;;;;;;;23.78;68.67;99409.19;5054265;28;20029;-65
2021/07/18 00:43:54;;;;;;;11.55;5.80;;;;;;;23.90;68.57;99424.56;5054791;28;20033;-66
2021/07/18 00:46:19;;;;;;;8.85;5.20;;;;;;;23.87;68.34;99425.53;5053249;28;20063;-68
2021/07/18 00:48:45;;;;;;;8.00;5.38;;;;;;;23.78;68.39;99420.59;5054502;28;20025;-66
2021/07/18 00:51:10;;;;;;;9.88;5.57;;;;;;;23.87;68.08;99427.31;5053331;28;20053;-64
2021/07/18 00:53:36;;;;;;;10.98;5.63;;;;;;;23.95;67.57;99429.69;5054556;28;20079;-66
2021/07/18 00:56:03;;;;;;;9.90;5.30;;;;;;;24.03;67.25;99425.03;5054463;28;20025;-66
2021/07/18 00:58:31;;;;;;;11.40;5.40;;;;;;;24.10;66.93;99423.03;5054206;28;20032;-64
2021/07/18 01:00:57;;;;;;;11.88;5.80;;;;;;;24.27;66.40;99425.91;5054225;28;20450;-71
2021/07/18 01:03:25;;;;;;;9.05;5.97;;;;;;;24.33;66.47;99423.06;5054103;28;20025;-65
2021/07/18 01:05:50;;;;;;;10.82;5.22;;;;;;;24.04;66.74;99409.16;5054314;28;20060;-71
2021/07/18 01:08:16;;;;;;;10.43;5.82;;;;;;;23.99;67.45;99426.03;5052182;28;20076;-65
2021/07/18 01:10:42;;;;;;;8.25;5.32;;;;;;;23.95;67.62;99427.94;5054265;28;20115;-66
2021/07/18 01:13:07;;;;;;;8.02;5.85;;;;;;;23.88;67.50;99426.41;5054046;28;20064;-66
2021/07/18 01:15:33;;;;;;;7.70;5.45;;;;;;;23.79;67.23;99430.22;5054075;28;20029;-66
2021/07/18 01:17:58;;;;;;;11.73;5.43;;;;;;;23.74;67.27;99427.72;5051908;28;20041;-66
2021/07/18 01:20:24;;;;;;;8.32;5.43;;;;;;;23.66;67.62;99419.22;5054109;28;20389;-66
2021/07/18 01:22:50;;;;;;;8.80;5.05;;;;;;;23.69;67.89;99428.78;5053975;28;20033;-66
2021/07/18 01:25:16;;;;;;;8.60;5.15;;;;;;;23.73;67.71;99426.00;5053578;28;20056;-66
2021/07/18 01:27:41;;;;;;;12.93;5.65;;;;;;;23.75;67.90;99423.31;5053699;28;20036;-66
2021/07/18 01:30:09;;;;;;;11.20;5.65;;;;;;;23.47;67.92;99395.28;5053760;28;20031;-66
2021/07/18 01:32:35;;;;;;;8.95;5.28;;;;;;;23.60;67.83;99419.41;5053529;28;20029;-68
2021/07/18 01:35:01;;;;;;;9.95;5.28;;;;;;;23.49;68.07;99426.81;5053884;28;20029;-70
2021/07/18 01:37:26;;;;;;;10.82;5.38;;;;;;;23.47;67.46;99432.16;5053680;28;20068;-66
2021/07/18 01:39:52;;;;;;;9.15;5.32;;;;;;;23.16;68.37;99433.13;5053801;28;20104;-66
2021/07/18 01:42:17;;;;;;;9.90;4.95;;;;;;;22.97;68.63;99427.56;5053530;28;20056;-66
2021/07/18 01:44:43;;;;;;;8.85;5.80;;;;;;;22.70;69.57;99416.94;5052167;28;20123;-68
2021/07/18 01:47:09;;;;;;;8.85;5.35;;;;;;;22.62;70.19;99432.13;5053391;28;20017;-66
2021/07/18 01:49:34;;;;;;;11.35;5.50;;;;;;;22.50;70.36;99424.59;5053284;28;20107;-65
2021/07/18 01:52:00;;;;;;;10.07;6.10;;;;;;;22.39;70.52;99425.78;5053396;28;20052;-65
2021/07/18 01:54:25;;;;;;;9.25;6.53;;;;;;;22.29;71.33;99424.25;5053262;28;20056;-64
2021/07/18 01:56:51;;;;;;;9.65;5.90;;;;;;;22.18;71.83;99424.56;5053657;28;20041;-66
2021/07/18 01:59:18;;;;;;;11.82;5.78;;;;;;;21.92;72.00;99384.09;5053245;28;20029;-72
2021/07/18 02:01:44;;;;;;;8.32;5.10;;;;;;;22.16;71.59;99426.38;5052940;28;20025;-66
2021/07/18 02:04:13;;;;;;;11.18;5.93;;;;;;;21.86;72.06;99381.63;5052143;28;20139;-64
2021/07/18 02:06:39;;;;;;;10.23;5.63;;;;;;;22.16;71.63;99418.47;5053062;28;20028;-66
2021/07/18 02:09:05;;;;;;;8.32;6.13;;;;;;;22.20;71.47;99414.84;5053106;28;20102;-67
2021/07/18 02:11:30;;;;;;;9.70;6.28;;;;;;;22.19;71.66;99425.41;5052932;28;20025;-64
2021/07/18 02:13:58;;;;;;;9.32;6.07;;;;;;;22.09;72.21;99420.44;5052865;28;20029;-66
2021/07/18 02:16:24;;;;;;;7.82;5.38;;;;;;;22.15;71.96;99408.88;5052629;28;20103;-67
2021/07/18 02:18:50;;;;;;;10.43;6.15;;;;;;;22.18;71.76;99411.44;5052724;28;20021;-67
2021/07/18 02:21:20;;;;;;;10.35;6.10;;;;;;;21.93;72.06;99391.06;5052896;28;20025;-67
2021/07/18 02:23:46;;;;;;;13.13;5.95;;;;;;;22.10;72.04;99416.88;5052724;28;20025;-64
2021/07/18 02:26:11;;;;;;;8.77;5.53;;;;;;;22.08;72.80;99417.81;5052819;28;20032;-66
2021/07/18 02:28:36;;;;;;;9.70;5.55;;;;;;;22.02;73.11;99418.00;5052621;28;20055;-67
2021/07/18 02:31:06;;;;;;;10.77;6.18;;;;;;;21.94;72.97;99426.97;5052319;28;20112;-66
2021/07/18 02:33:32;;;;;;;8.20;5.78;;;;;;;21.88;73.39;99421.88;5052671;28;20025;-65
2021/07/18 02:35:59;;;;;;;7.60;5.70;;;;;;;21.96;73.15;99421.66;5050604;28;20044;-68
2021/07/18 02:38:25;;;;;;;8.90;5.78;;;;;;;22.07;72.97;99429.22;5052597;28;20021;-66
2021/07/18 02:40:51;;;;;;;15.05;6.68;;;;;;;22.10;72.78;99430.00;5051210;28;20086;-66
2021/07/18 02:43:16;;;;;;;7.90;6.28;;;;;;;22.16;72.82;99436.00;5052525;28;20024;-68
2021/07/18 02:45:42;;;;;;;10.65;6.85;;;;;;;21.80;72.27;99359.00;5052476;28;20045;-65
2021/07/18 02:48:08;;;;;;;13.80;6.45;;;;;;;22.35;71.92;99431.97;5052385;28;20021;-64
2021/07/18 02:50:33;;;;;;;9.75;6.20;;;;;;;22.08;71.88;99383.66;5052154;28;20495;-66
2021/07/18 02:52:58;;;;;;;7.93;6.20;;;;;;;22.20;72.81;99419.25;5050904;28;20021;-66
2021/07/18 02:55:24;;;;;;;10.02;5.82;;;;;;;22.34;72.03;99430.22;5052135;28;20028;-69
2021/07/18 02:57:50;;;;;;;14.98;5.82;;;;;;;22.61;71.31;99433.88;5051839;28;20488;-66
2021/07/18 03:00:18;;;;;;;12.63;6.10;;;;;;;22.60;70.38;99405.88;5048349;28;20051;-68
2021/07/18 03:02:44;;;;;;;10.77;6.35;;;;;;;22.81;70.48;99429.78;5032394;28;20026;-66
2021/07/18 03:05:11;;;;;;;10.82;6.05;;;;;;;22.83;70.12;99425.34;5032169;28;20049;-67
2021/07/18 03:07:37;;;;;;;11.20;5.97;;;;;;;22.70;70.84;99438.00;5032181;28;20026;-69
2021/07/18 03:10:04;;;;;;;9.80;5.97;;;;;;;22.63;70.35;99404.91;5031830;28;20083;-66
2021/07/18 03:12:31;;;;;;;14.23;6.10;;;;;;;22.50;69.83;99370.19;5029863;28;20046;-65
2021/07/18 03:14:58;;;;;;;10.45;6.53;;;;;;;22.69;69.98;99407.38;5032153;28;20033;-71
2021/07/18 03:17:23;;;;;;;10.45;6.03;;;;;;;23.00;69.95;99445.88;5032305;28;20025;-66
2021/07/18 03:19:49;;;;;;;12.18;5.97;;;;;;;23.04;69.76;99452.78;5031835;28;20512;-66
2021/07/18 03:22:14;;;;;;;11.52;6.60;;;;;;;23.12;69.13;99439.38;5031454;28;20079;-68
2021/07/18 03:24:39;;;;;;;12.68;6.80;;;;;;;23.29;68.84;99451.19;5031957;28;20469;-66
2021/07/18 03:27:05;;;;;;;14.68;6.40;;;;;;;23.27;68.79;99451.22;5031626;28;20030;-65
2021/07/18 03:29:30;;;;;;;13.15;6.68;;;;;;;22.98;69.65;99444.19;5031641;28;20095;-68
2021/07/18 03:31:56;;;;;;;12.18;6.40;;;;;;;22.96;69.84;99460.06;5031394;28;20036;-67
2021/07/18 03:34:21;;;;;;;11.55;5.88;;;;;;;22.88;70.70;99464.66;5031684;28;20049;-66
2021/07/18 03:36:47;;;;;;;11.55;6.25;;;;;;;22.63;71.38;99462.78;5031566;28;20029;-64
2021/07/18 03:39:12;;;;;;;12.43;5.88;;;;;;;22.33;71.54;99415.38;5031491;28;20443;-66
2021/07/18 03:41:38;;;;;;;10.93;6.60;;;;;;;22.28;72.61;99454.94;5031420;28;20084;-64
2021/07/18 03:44:03;;;;;;;11.65;5.85;;;;;;;22.31;73.16;99467.16;5031320;28;20175;-64
2021/07/18 03:46:29;;;;;;;15.48;6.18;;;;;;;22.44;72.79;99462.44;5031526;28;20401;-66
2021/07/18 03:48:54;;;;;;;13.93;6.28;;;;;;;22.46;72.96;99463.25;5031360;28;20053;-66
2021/07/18 03:51:19;;;;;;;12.80;6.40;;;;;;;22.61;72.15;99464.59;5031481;28;20508;-67
2021/07/18 03:53:45;;;;;;;12.02;6.88;;;;;;;22.72;72.56;99485.34;5031419;28;20412;-66
2021/07/18 03:56:11;;;;;;;11.00;6.97;;;;;;;22.78;72.08;99474.63;5030877;28;20480;-65
2021/07/18 03:58:36;;;;;;;11.90;6.65;;;;;;;22.41;72.23;99425.72;5030974;28;20030;-68
2021/07/18 04:01:02;;;;;;;12.75;7.10;;;;;;;22.46;71.75;99435.19;5031252;28;20033;-66
2021/07/18 04:03:28;;;;;;;16.10;8.43;;;;;;;22.67;72.27;99474.94;5031310;28;20450;-65
2021/07/18 04:05:53;;;;;;;13.05;7.55;;;;;;;22.67;72.21;99469.69;5031121;28;20116;-65
2021/07/18 04:08:19;;;;;;;12.00;7.65;;;;;;;22.54;72.29;99440.25;5029913;28;20025;-69
2021/07/18 04:10:44;;;;;;;18.95;8.18;;;;;;;22.74;72.10;99467.72;5029888;28;20030;-65
2021/07/18 04:13:10;;;;;;;9.70;7.75;;;;;;;22.82;71.98;99467.47;5031322;28;20040;-65
2021/07/18 04:15:35;;;;;;;11.43;6.82;;;;;;;22.64;72.46;99435.53;5031182;28;20504;-68
2021/07/18 04:18:10;;;;;;;14.35;8.45;;;;;;;22.83;72.46;99470.09;5031225;28;20033;-65
2021/07/18 04:20:36;;;;;;;15.63;8.32;;;;;;;22.90;72.16;99471.66;5031357;28;20077;-66
2021/07/18 04:23:01;;;;;;;14.60;7.97;;;;;;;23.01;71.76;99476.56;5031066;28;20476;-66
2021/07/18 04:25:27;;;;;;;11.40;8.25;;;;;;;22.96;72.46;99475.00;5029039;28;20081;-66
2021/07/18 04:27:52;;;;;;;14.38;8.43;;;;;;;22.91;73.13;99462.81;5031486;28;20022;-66
2021/07/18 04:30:17;;;;;;;13.00;8.23;;;;;;;23.13;72.63;99482.34;5031252;28;20492;-66
2021/07/18 04:32:43;;;;;;;13.38;8.18;;;;;;;23.21;71.84;99483.03;5031202;28;20504;-64
2021/07/18 04:35:09;;;;;;;14.82;8.13;;;;;;;23.34;71.51;99491.41;5031062;28;20034;-65
2021/07/18 04:37:38;;;;;;;18.83;7.93;;;;;;;23.21;72.15;99461.97;5031000;28;20489;-66
2021/07/18 04:40:05;;;;;;;13.00;8.18;;;;;;;23.37;71.55;99489.53;5030958;28;20408;-67
2021/07/18 04:42:30;;;;;;;14.27;8.88;;;;;;;23.39;71.85;99493.00;5030927;28;20025;-66
2021/07/18 04:44:56;;;;;;;12.30;7.22;;;;;;;23.31;71.05;99463.38;5012192;28;20428;-66
2021/07/18 04:47:21;;;;;;;11.38;7.88;;;;;;;23.47;70.90;99474.28;5031238;28;20021;-66
2021/07/18 04:49:47;;;;;;;13.88;8.30;;;;;;;23.67;71.56;99505.25;5031021;28;20057;-69
2021/07/18 04:52:13;;;;;;;15.35;8.57;;;;;;;23.74;71.53;99503.31;5030900;28;20033;-68
2021/07/18 04:54:38;;;;;;;13.60;7.90;;;;;;;23.79;71.47;99489.94;5030718;28;20108;-64
2021/07/18 04:57:04;;;;;;;14.57;7.13;;;;;;;23.72;71.54;99470.84;5030962;28;20040;-66
2021/07/18 04:59:29;;;;;;;13.38;7.75;;;;;;;24.00;71.04;99497.19;5032484;28;20021;-66
2021/07/18 05:01:56;;;;;;;12.48;7.38;;;;;;;24.06;70.80;99496.97;5034242;28;20051;-69
2021/07/18 05:04:21;;;;;;;8.30;7.30;;;;;;;24.13;71.18;99496.78;5034333;28;20021;-66
2021/07/18 05:06:47;;;;;;;9.93;6.95;;;;;;;24.01;71.28;99484.84;5034225;28;20025;-71
2021/07/18 05:09:12;;;;;;;11.45;7.35;;;;;;;24.14;70.69;99496.72;5033056;28;20026;-65
2021/07/18 05:11:38;;;;;;;14.10;7.05;;;;;;;24.17;70.53;99498.38;5034272;28;20034;-66
2021/07/18 05:14:03;;;;;;;14.20;6.82;;;;;;;24.21;69.16;99492.94;5034226;28;20029;-66
2021/07/18 05:16:30;;;;;;;14.90;6.95;;;;;;;24.08;69.84;99462.63;5034115;28;20084;-65
2021/07/18 05:18:55;;;;;;;13.20;6.80;;;;;;;24.42;69.91;99497.50;5034151;28;20024;-66
2021/07/18 05:21:21;;;;;;;16.33;7.22;;;;;;;24.47;69.61;99495.56;5033788;28;20401;-66
2021/07/18 05:23:46;;;;;;;14.68;7.05;;;;;;;24.42;68.91;99484.31;5033888;28;20033;-66
2021/07/18 05:26:12;;;;;;;10.75;6.32;;;;;;;24.55;70.58;99499.63;5034092;28;20025;-66
2021/07/18 05:28:37;;;;;;;9.40;5.82;;;;;;;24.60;68.86;99495.97;5034037;28;20370;-65
2021/07/18 05:31:02;;;;;;;14.32;7.10;;;;;;;24.68;69.45;99499.22;5033964;28;20477;-66
2021/07/18 05:33:28;;;;;;;12.65;6.18;;;;;;;24.86;68.14;99500.31;5033771;28;20534;-66
2021/07/18 05:35:55;;;;;;;13.10;6.45;;;;;;;24.87;67.58;99471.22;5033793;28;20021;-66
2021/07/18 05:38:20;;;;;;;8.55;6.07;;;;;;;24.99;68.08;99466.41;5033585;28;20396;-66
2021/07/18 05:40:45;;;;;;;13.07;6.47;;;;;;;25.20;68.17;99497.22;5033829;28;20026;-66
2021/07/18 05:43:11;;;;;;;14.00;6.30;;;;;;;25.14;68.41;99505.41;5040626;28;20102;-68
2021/07/18 05:45:37;;;;;;;11.88;6.25;;;;;;;24.85;69.84;99465.13;5042966;28;20137;-71
2021/07/18 05:48:04;;;;;;;14.15;6.03;;;;;;;25.13;69.14;99497.53;5053936;28;20025;-68
2021/07/18 05:50:29;;;;;;;19.83;6.97;;;;;;;25.10;69.77;99497.69;5052800;28;20032;-66
2021/07/18 05:52:55;;;;;;;12.45;7.43;;;;;;;25.26;70.86;99501.44;5053215;28;20086;-65
2021/07/18 05:55:22;;;;;;;16.73;7.35;;;;;;;25.24;70.84;99487.41;5053547;28;20029;-66
2021/07/18 05:57:48;;;;;;;11.52;6.50;;;;;;;25.37;69.99;99502.81;5053412;28;20037;-66
2021/07/18 06:00:14;;;;;;;13.65;7.68;;;;;;;25.30;71.35;99465.19;5053286;28;20127;-67
2021/07/18 06:02:41;;;;;;;14.88;8.63;;;;;;;25.59;73.86;99508.09;5052958;28;20502;-66
2021/07/18 06:05:07;;;;;;;21.35;9.57;;;;;;;25.66;73.15;99499.84;5053024;28;20036;-69
2021/07/18 06:07:32;;;;;;;18.27;8.95;;;;;;;25.70;72.43;99487.38;5052883;28;20426;-66
2021/07/18 06:09:58;;;;;;;19.83;10.20;;;;;;;25.77;71.40;99495.88;5052668;28;20033;-66
2021/07/18 06:12:23;;;;;;;18.70;9.70;;;;;;;25.88;70.76;99498.09;5052402;28;20029;-67
2021/07/18 06:14:49;;;;;;;17.45;9.43;;;;;;;25.97;70.35;99482.69;5053105;28;20099;-66
2021/07/18 06:17:14;;;;;;;17.92;8.65;;;;;;;26.06;69.33;99491.22;5053304;28;20090;-66
2021/07/18 06:19:40;;;;;;;17.58;9.35;;;;;;;25.99;69.77;99487.91;5052846;28;20026;-66
2021/07/18 06:22:07;;;;;;;19.50;9.38;;;;;;;26.21;69.66;99498.47;5052495;28;20471;-66
2021/07/18 06:24:33;;;;;;;16.58;8.73;;;;;;;26.43;69.98;99497.53;5052916;28;20037;-70
2021/07/18 06:26:59;;;;;;;27.38;9.18;;;;;;;26.60;69.59;99497.63;5067299;28;20047;-67
2021/07/18 06:29:25;;;;;;;18.50;8.63;;;;;;;26.74;69.28;99497.06;5052606;28;20448;-66
2021/07/18 06:31:50;;;;;;;14.90;8.45;;;;;;;26.87;67.54;99492.03;5052589;28;20046;-68
2021/07/18 06:34:16;;;;;;;15.57;8.40;;;;;;;26.91;69.53;99490.94;5052596;28;20028;-66
2021/07/18 06:36:41;;;;;;;18.83;8.00;;;;;;;26.94;67.44;99495.25;5052327;28;20025;-67
2021/07/18 06:39:07;;;;;;;13.30;8.35;;;;;;;26.83;70.38;99492.25;5052629;28;20036;-65
2021/07/18 06:41:32;;;;;;;16.17;8.32;;;;;;;26.89;69.20;99503.44;5051328;28;20079;-68
2021/07/18 06:43:57;;;;;;;21.02;8.73;;;;;;;26.83;68.47;99494.88;5052658;28;20472;-66
2021/07/18 06:46:23;;;;;;;16.85;6.95;;;;;;;26.90;68.55;99491.03;5052432;28;20071;-65
2021/07/18 06:48:48;;;;;;;15.23;8.85;;;;;;;26.94;68.60;99492.59;5050780;28;20067;-68
2021/07/18 06:51:14;;;;;;;24.98;9.48;;;;;;;26.95;68.59;99492.56;5051950;28;20091;-66
2021/07/18 06:53:39;;;;;;;18.40;9.18;;;;;;;27.11;67.00;99492.66;5052197;28;20028;-68
2021/07/18 06:56:05;;;;;;;16.98;8.40;;;;;;;27.16;68.94;99488.97;5052430;28;20064;-66
2021/07/18 06:58:31;;;;;;;16.02;7.20;;;;;;;27.09;65.60;99459.22;5052090;28;20033;-65
2021/07/18 07:00:56;;;;;;;17.08;6.13;;;;;;;27.17;64.84;99480.94;5042658;28;20032;-68
2021/07/18 07:03:23;;;;;;;16.95;6.38;;;;;;;27.19;66.90;99476.44;5050068;28;20420;-68
2021/07/18 07:05:49;;;;;;;16.10;6.50;;;;;;;27.04;64.87;99479.78;5054033;28;20053;-68
2021/07/18 07:08:14;;;;;;;20.20;7.57;;;;;;;27.05;68.10;99474.41;5051745;28;20072;-63
2021/07/18 07:10:41;;;;;;;24.23;7.40;;;;;;;26.92;66.63;99449.47;5052302;28;20036;-67
2021/07/18 07:13:07;;;;;;;20.75;6.43;;;;;;;27.26;68.36;99461.06;5051905;28;20530;-67
2021/07/18 07:15:32;;;;;;;16.83;6.38;;;;;;;27.47;64.16;99467.16;5051760;28;20048;-66
2021/07/18 07:17:59;;;;;;;15.90;6.35;;;;;;;27.67;64.53;99467.97;5053874;28;20033;-66
2021/07/18 07:20:28;;;;;;;18.45;6.45;;;;;;;27.91;62.98;99466.72;5052153;28;20033;-67
2021/07/18 07:23:08;;;;;;;14.93;6.18;;;;;;;28.07;60.94;99468.59;5054235;28;20043;-67
2021/07/18 07:25:44;;;;;;;15.82;6.05;;;;;;;28.12;62.45;99463.91;5074112;28;20046;-67
2021/07/18 07:28:24;;;;;;;12.30;5.20;;;;;;;28.13;60.41;99449.72;5073685;28;20191;-67
2021/07/18 07:30:58;;;;;;;12.48;5.45;;;;;;;28.01;61.89;99421.13;5055932;28;20043;-65
2021/07/18 07:33:33;;;;;;;9.80;5.20;;;;;;;28.19;61.03;99448.53;5069311;28;20404;-66
2021/07/18 07:36:10;;;;;;;14.20;5.82;;;;;;;28.17;59.67;99440.66;5072858;28;20093;-70
2021/07/18 07:39:01;;;;;;;12.57;5.70;;;;;;;28.22;60.42;99443.06;5049380;28;20121;-67
2021/07/18 07:41:41;;;;;;;15.75;5.55;;;;;;;28.43;59.15;99445.53;5054175;28;20037;-67
2021/07/18 07:44:07;;;;;;;;;;;;;;;28.53;58.20;99444.09;5050504;28;20496;-66
2021/07/18 07:46:32;;;;;;;21.52;5.75;;;;;;;28.58;57.06;99440.22;5049167;28;19912;-70
2021/07/18 07:48:58;;;;;;;21.45;6.63;;;;;;;28.64;57.86;99447.00;5049742;28;20037;-67
2021/07/18 07:51:25;;;;;;;13.27;5.43;;;;;;;28.78;56.69;99440.97;5039150;28;20041;-69
2021/07/18 07:53:51;;;;;;;14.68;5.72;;;;;;;28.76;56.00;99432.22;5033767;28;20030;-66
2021/07/18 07:56:21;;;;;;;17.90;6.20;;;;;;;28.99;56.31;99448.69;5031496;28;20084;-67
2021/07/18 07:58:56;;;;;;;15.70;5.05;;;;;;;29.12;57.04;99444.38;5031479;28;20072;-67
2021/07/18 08:01:26;;;;;;;11.02;5.65;;;;;;;29.14;56.08;99444.31;5012463;28;20033;-66
2021/07/18 08:03:52;;;;;;;19.50;7.13;;;;;;;29.03;56.56;99444.91;5028998;28;20063;-65
2021/07/18 08:06:18;;;;;;;11.10;5.30;;;;;;;29.26;56.06;99446.28;5028420;28;20108;-68
2021/07/18 08:08:43;;;;;;;12.32;4.40;;;;;;;29.48;54.73;99443.25;5028809;28;20041;-66
2021/07/18 08:11:09;;;;;;;13.60;5.68;;;;;;;29.60;54.30;99448.81;5027971;28;20063;-67
2021/07/18 08:13:42;;;;;;;18.10;5.93;;;;;;;29.69;53.93;99442.94;5025594;28;20040;-67
2021/07/18 08:16:09;;;;;;;16.27;6.30;;;;;;;29.72;57.49;99431.25;5026855;28;20048;-64
2021/07/18 08:18:35;;;;;;;16.35;5.40;;;;;;;29.86;53.85;99433.97;5027043;28;20412;-66
2021/07/18 08:21:01;;;;;;;12.60;5.18;;;;;;;29.81;52.95;99426.25;5018215;28;20029;-66
2021/07/18 08:23:38;;;;;;;10.73;5.25;;;;;;;29.79;53.57;99432.63;5021896;28;20036;-64
2021/07/18 08:26:08;;;;;;;9.40;4.65;;;;;;;29.92;53.63;99424.78;5034332;28;20052;-68
2021/07/18 08:28:57;;;;;;;9.52;5.43;;;;;;;30.01;52.21;99426.91;5032304;28;20530;-69
2021/07/18 08:31:23;;;;;;;19.73;5.65;;;;;;;30.15;56.48;99418.91;5010830;28;20525;-67
2021/07/18 08:33:52;;;;;;;12.98;4.68;;;;;;;30.28;52.53;99428.78;5013345;28;20041;-66
2021/07/18 08:36:21;;;;;;;9.65;5.00;;;;;;;30.34;52.74;99417.75;5045753;28;20045;-65
2021/07/18 08:38:53;;;;;;;11.77;5.00;;;;;;;30.44;52.69;99426.88;5054560;28;20423;-67
2021/07/18 08:41:28;;;;;;;8.80;4.30;;;;;;;30.49;49.89;99418.63;5055649;28;20033;-66
2021/07/18 08:43:55;;;;;;;7.40;4.43;;;;;;;30.42;53.46;99406.63;5037088;28;20047;-66
2021/07/18 08:46:22;;;;;;;14.00;4.95;;;;;;;30.59;51.21;99413.59;5052163;28;20482;-67
2021/07/18 08:48:48;;;;;;;11.00;4.72;;;;;;;30.53;50.65;99417.53;5035964;28;20112;-67
2021/07/18 08:51:14;;;;;;;10.43;5.18;;;;;;;30.51;50.68;99411.41;5052274;28;20168;-72
2021/07/18 08:53:40;;;;;;;9.48;5.07;;;;;;;30.72;51.68;99419.84;5052105;28;20024;-66
2021/07/18 08:56:06;;;;;;;7.97;4.55;;;;;;;30.59;50.32;99374.47;5052019;28;20045;-69
2021/07/18 08:58:32;;;;;;;8.50;4.30;;;;;;;30.77;48.92;99398.25;5051857;28;20033;-66
2021/07/18 09:00:57;;;;;;;9.27;4.53;;;;;;;30.79;48.98;99393.66;5051794;28;20025;-66
2021/07/18 09:03:23;;;;;;;6.65;4.45;;;;;;;31.06;48.12;99392.84;5054221;28;20041;-66
2021/07/18 09:05:52;;;;;;;9.70;4.25;;;;;;;30.97;49.23;99370.31;5054419;28;20025;-69
2021/07/18 09:08:20;;;;;;;7.75;4.75;;;;;;;31.25;48.76;99363.16;5054353;28;20139;-69
2021/07/18 09:10:50;;;;;;;11.02;4.85;;;;;;;31.66;48.26;99390.69;5053426;28;20057;-66
2021/07/18 09:13:19;;;;;;;10.80;4.53;;;;;;;31.96;48.00;99385.03;5053320;28;20021;-71
2021/07/18 09:15:48;;;;;;;9.52;4.60;;;;;;;31.87;45.96;99369.69;5051163;28;20035;-68
2021/07/18 09:18:20;;;;;;;11.63;4.65;;;;;;;31.89;46.35;99381.09;5050645;28;20037;-69
2021/07/18 09:20:48;;;;;;;15.32;5.10;;;;;;;32.17;46.17;99376.50;5052321;28;20029;-69
2021/07/18 09:23:17;;;;;;;8.50;4.40;;;;;;;32.41;46.04;99371.22;5053452;28;20154;-67
2021/07/18 09:25:43;;;;;;;6.13;3.88;;;;;;;32.39;45.96;99371.34;5052325;28;20400;-66
2021/07/18 09:28:10;;;;;;;11.38;5.13;;;;;;;32.48;47.73;99363.66;5053520;28;20025;-68
2021/07/18 09:30:36;;;;;;;8.38;4.60;;;;;;;32.68;45.72;99359.53;5053584;28;20035;-69
2021/07/18 09:33:02;;;;;;;12.40;4.88;;;;;;;32.79;44.69;99359.63;5053101;28;20488;-66
2021/07/18 09:35:28;;;;;;;51.60;6.07;;;;;;;32.96;44.39;99363.72;5053188;28;20036;-66
2021/07/18 09:37:54;;;;;;;8.57;4.25;;;;;;;33.09;43.38;99365.44;5052967;28;20441;-69
2021/07/18 09:40:25;;;;;;;8.68;5.07;;;;;;;33.28;44.74;99363.09;5052029;28;20047;-67
2021/07/18 09:43:00;;;;;;;13.02;5.18;;;;;;;33.22;44.04;99348.38;5053367;28;20143;-65
2021/07/18 09:45:32;;;;;;;10.20;4.65;;;;;;;33.23;44.06;99360.75;5050496;28;20515;-66
2021/07/18 09:48:01;;;;;;;15.00;5.20;;;;;;;33.41;43.44;99355.03;5050785;28;20024;-70
2021/07/18 09:50:44;;;;;;;8.20;4.63;;;;;;;33.54;43.30;99350.44;5035659;28;20021;-67
2021/07/18 09:53:28;;;;;;;11.32;4.35;;;;;;;33.22;43.42;99344.84;5045509;28;20029;-68
2021/07/18 09:56:04;;;;;;;8.63;4.35;;;;;;;33.17;44.19;99352.38;5030945;28;20029;-69
2021/07/18 09:58:31;;;;;;;9.80;4.50;;;;;;;33.06;43.88;99335.31;5049391;28;20088;-66
2021/07/18 10:00:59;;;;;;;13.82;4.90;;;;;;;33.23;44.02;99338.53;5050395;28;20602;-68
2021/07/18 10:03:27;;;;;;;11.43;4.65;;;;;;;33.19;44.03;99337.91;5047117;28;20033;-68
2021/07/18 10:06:09;;;;;;;10.35;4.90;;;;;;;33.16;44.53;99340.81;5044094;28;20066;-65
2021/07/18 10:08:41;;;;;;;12.07;4.88;;;;;;;33.22;43.71;99344.84;5099362;28;20037;-67
2021/07/18 10:11:09;;;;;;;9.40;4.57;;;;;;;33.32;44.18;99342.34;5047285;28;20041;-65
2021/07/18 10:13:41;;;;;;;12.35;4.85;;;;;;;33.69;44.21;99340.34;5050100;28;20033;-67
2021/07/18 10:16:07;;;;;;;7.53;4.07;;;;;;;33.57;43.05;99327.94;5050334;28;20040;-66
2021/07/18 10:18:37;;;;;;;10.10;4.90;;;;;;;33.78;43.40;99330.75;5050848;28;20110;-66
2021/07/18 10:21:03;;;;;;;9.73;4.40;;;;;;;33.45;41.42;99334.22;5050493;28;20429;-66
2021/07/18 10:23:30;;;;;;;10.88;4.65;;;;;;;33.84;43.27;99335.66;5050774;28;20484;-70
2021/07/18 10:25:58;;;;;;;21.27;5.13;;;;;;;34.24;42.37;99333.47;5050592;28;20119;-65
2021/07/18 10:28:26;;;;;;;10.35;4.70;;;;;;;34.38;40.17;99322.50;5050647;28;20032;-66
2021/07/18 10:30:56;;;;;;;9.43;4.30;;;;;;;34.08;40.68;99307.06;5050472;28;20041;-66
2021/07/18 10:33:22;;;;;;;10.82;4.10;;;;;;;34.09;39.57;99323.00;5050707;28;20086;-66
2021/07/18 10:35:52;;;;;;;9.13;4.13;;;;;;;34.14;39.80;99336.88;5050527;28;20033;-65
2021/07/18 10:38:22;;;;;;;5.75;4.38;;;;;;;34.22;40.45;99322.91;5050385;28;20029;-64
2021/07/18 10:40:55;;;;;;;9.48;4.50;;;;;;;34.07;39.46;99318.75;5050468;28;20045;-65
2021/07/18 10:43:33;;;;;;;17.13;4.63;;;;;;;34.51;38.67;99308.97;5050521;28;20397;-67
2021/07/18 10:45:58;;;;;;;9.18;4.63;;;;;;;34.93;37.25;99302.88;5050312;28;20049;-66
2021/07/18 10:48:42;;;;;;;8.93;4.15;;;;;;;34.82;38.77;99298.41;5050343;28;20082;-66
2021/07/18 10:51:08;;;;;;;8.57;4.65;;;;;;;34.92;38.47;99303.84;5034670;28;20099;-66
2021/07/18 10:53:38;;;;;;;7.72;4.55;;;;;;;35.34;38.13;99300.34;5031310;28;20056;-66
2021/07/18 10:56:07;;;;;;;10.98;4.47;;;;;;;35.42;36.76;99279.13;5032459;28;20044;-66
2021/07/18 10:58:38;;;;;;;;;;;;;;;34.97;38.59;99296.31;5032510;28;20455;-70
2021/07/18 11:01:31;;;;;;;10.68;4.88;;;;;;;35.27;38.91;99294.69;5032271;28;19905;-66
2021/07/18 11:03:58;;;;;;;14.65;4.07;;;;;;;35.54;36.72;99286.13;5032436;28;20036;-65
2021/07/18 11:06:31;;;;;;;8.95;4.18;;;;;;;35.39;35.79;99280.25;5032363;28;20120;-66
2021/07/18 11:09:06;;;;;;;6.50;4.45;;;;;;;35.33;37.53;99290.59;5032399;28;20399;-66
2021/07/18 11:11:40;;;;;;;5.90;4.03;;;;;;;35.35;37.03;99257.28;5032344;28;20040;-65
2021/07/18 11:14:35;;;;;;;9.32;4.80;;;;;;;35.98;36.18;99287.72;5032288;28;20029;-65
2021/07/18 11:17:02;;;;;;;11.30;4.40;;;;;;;36.25;35.08;99284.41;5032091;28;20025;-66
2021/07/18 11:19:37;;;;;;;7.78;4.72;;;;;;;36.34;34.92;99286.28;5031939;28;20512;-66
2021/07/18 11:22:08;;;;;;;7.55;4.55;;;;;;;36.59;34.29;99279.53;5031713;28;20094;-71
2021/07/18 11:24:54;;;;;;;12.80;5.20;;;;;;;36.69;34.97;99286.75;5034306;28;20029;-66
2021/07/18 11:27:34;;;;;;;11.38;4.68;;;;;;;36.94;35.25;99281.81;5034549;28;20117;-63
2021/07/18 11:30:03;;;;;;;10.80;4.60;;;;;;;37.14;33.86;99269.22;5032275;28;20472;-67